SARE/RES METAR and TAF weather

Enter ICAO airport designator
Station Type Date Time Source
SARE METAR 2019/10/22 16:00 UTC NOAA

SARE 221600Z 23005KT CAVOK 24/13 Q1016


Station Type Date Time Source
SARE Decoded METAR 2019/10/22 16:00 UTC NOAA

Resistencia Aero., Argentina (SARE) 27-27S 059-03W 52M
Oct 22, 2019 - 12:00 PM EDT / 2019.10.22 1600 UTC
Wind: from the SW (230 degrees) at 6 MPH (5 KT):0
Visibility: greater than 7 mile(s):0
Temperature: 75 F (24 C)
Dew Point: 55 F (13 C)
Relative Humidity: 50%
Pressure (altimeter): 30.00 in. Hg (1016 hPa)
ob: SARE 221600Z 23005KT CAVOK 24/13 Q1016
cycle: 16

Station Type Date Time Source
SARE TAF 2019/10/22 12:18 UTC NOAA

TAF TAF SARE 221100Z 2212/2312 14005KT CAVOK TX25/2218Z TN10/2310Z PROB40 2308/2311 2000 BR NSC

Example: see airport list